Time;durP1;ratioP1;P1;durP2;ratioP2;P2;SDS_P1;SDS_P2;PMS_P1;PMS_P2;Temp;Humidity;BMP_temperature;BMP_pressure;BME280_temperature;BME280_humidity;BME280_pressure;Samples;Min_cycle;Max_cycle;Signal;HPM_P1;HPM_P2
2023/01/13 00:03:29;;;;;;;15.45;1.40;;;;;;;6.23;100.00;100317.78;5094088;22;20056;-92
2023/01/13 00:15:45;;;;;;;17.17;1.50;;;;;;;5.90;100.00;100316.66;5037793;22;20136;-91
2023/01/13 00:24:46;;;;;;;21.15;2.08;;;;;;;6.03;100.00;100344.81;5020741;28;20048;-91
2023/01/13 00:27:12;;;;;;;26.67;2.17;;;;;;;5.59;100.00;100287.66;5025874;28;20559;-92
2023/01/13 00:46:04;;;;;;;29.13;2.45;;;;;;;5.65;100.00;100307.16;5035414;28;20076;-92
2023/01/13 00:48:54;;;;;;;34.97;2.53;;;;;;;5.48;100.00;100285.06;5042013;28;20029;-91
2023/01/13 01:05:42;;;;;;;30.38;2.13;;;;;;;5.47;100.00;100300.19;5076548;28;20131;-93
2023/01/13 01:08:33;;;;;;;22.42;1.85;;;;;;;5.36;100.00;100301.84;5062280;28;20013;-91
2023/01/13 01:18:34;;;;;;;;;;;;;;;;;;;;;
2023/01/13 01:21:55;;;;;;;21.15;2.42;;;;;;;5.61;100.00;100328.13;5273732;22;20129;-91
2023/01/13 01:25:02;;;;;;;41.35;2.80;;;;;;;5.78;100.00;100318.56;5067345;28;20033;-92
2023/01/13 01:27:44;;;;;;;25.98;2.35;;;;;;;5.54;100.00;100278.81;5048933;28;20073;-91
2023/01/13 01:44:35;;;;;;;28.65;2.42;;;;;;;5.49;100.00;100313.25;4903098;29;20036;-90
2023/01/13 01:47:01;;;;;;;17.25;1.95;;;;;;;5.53;100.00;100333.78;4896229;29;20082;-90
2023/01/13 02:04:53;;;;;;;34.43;3.20;;;;;;;5.08;100.00;100302.63;5057987;22;20048;-91
2023/01/13 02:07:26;;;;;;;25.17;3.00;;;;;;;4.81;100.00;100266.75;5056463;28;20025;-90
2023/01/13 02:09:54;;;;;;;26.42;2.53;;;;;;;5.03;100.00;100284.69;5035505;28;20108;-91
2023/01/13 02:12:29;;;;;;;29.63;2.63;;;;;;;4.81;100.00;100263.28;5029865;28;20069;-91
2023/01/13 02:14:58;;;;;;;33.58;3.05;;;;;;;4.93;100.00;100289.81;5013761;28;20034;-91
2023/01/13 02:17:50;;;;;;;36.00;3.53;;;;;;;4.90;100.00;100298.22;5013939;28;20103;-91
2023/01/13 02:20:44;;;;;;;32.87;2.83;;;;;;;4.74;100.00;100286.50;5010466;28;20334;-91
2023/01/13 02:27:04;;;;;;;39.88;4.28;;;;;;;4.88;100.00;100314.41;5014014;28;20068;-92
2023/01/13 02:40:20;;;;;;;35.63;3.67;;;;;;;4.83;100.00;100328.38;5012736;28;20675;-92
2023/01/13 02:46:13;;;;;;;28.83;2.95;;;;;;;5.08;100.00;100302.63;5012653;28;20102;-91
2023/01/13 02:48:43;;;;;;;37.50;2.92;;;;;;;4.89;100.00;100246.19;5012798;28;20497;-92
2023/01/13 02:51:13;;;;;;;45.72;3.47;;;;;;;5.13;100.00;100274.31;5011861;28;20529;-92
2023/01/13 02:53:47;;;;;;;38.95;3.35;;;;;;;4.98;100.00;100248.22;5011916;28;20029;-92
2023/01/13 02:56:15;;;;;;;33.73;3.03;;;;;;;5.36;100.00;100298.38;5012575;28;20104;-92
2023/01/13 02:58:44;;;;;;;29.42;2.90;;;;;;;5.26;100.00;100281.19;5009673;28;20029;-92
2023/01/13 03:01:09;;;;;;;33.30;3.28;;;;;;;5.33;100.00;100281.06;5012808;28;20036;-92
2023/01/13 03:03:35;;;;;;;27.07;2.87;;;;;;;5.06;100.00;100243.59;5013341;28;20393;-92
2023/01/13 03:06:25;;;;;;;36.55;2.60;;;;;;;5.41;100.00;100279.88;5012854;28;20036;-92
2023/01/13 03:09:21;;;;;;;27.60;2.35;;;;;;;5.46;100.00;100277.31;5016442;28;20040;-91
2023/01/13 03:12:02;;;;;;;26.30;2.60;;;;;;;5.45;100.00;100268.53;5000905;28;20026;-92
2023/01/13 03:14:45;;;;;;;31.90;2.60;;;;;;;5.41;100.00;100254.09;5013581;28;20284;-92
2023/01/13 03:17:33;;;;;;;27.83;2.92;;;;;;;5.65;100.00;100275.28;5016597;28;20033;-92
2023/01/13 03:20:22;;;;;;;23.52;2.05;;;;;;;5.73;100.00;100282.06;5015836;28;20033;-92
2023/01/13 03:22:57;;;;;;;27.42;2.58;;;;;;;5.57;100.00;100247.22;5016522;28;20071;-92
2023/01/13 03:25:26;;;;;;;29.85;2.70;;;;;;;5.50;100.00;100230.59;5039653;28;20052;-92
2023/01/13 03:28:21;;;;;;;25.13;2.53;;;;;;;5.62;100.00;100241.19;5038852;28;20033;-92
2023/01/13 03:30:52;;;;;;;33.00;3.20;;;;;;;5.66;100.00;100239.69;5008483;28;20312;-92
2023/01/13 03:33:23;;;;;;;23.70;2.35;;;;;;;5.82;100.00;100259.38;5027771;28;20030;-92
2023/01/13 03:35:57;;;;;;;17.33;2.00;;;;;;;6.01;100.00;100270.59;5021166;28;20033;-92
2023/01/13 03:38:51;;;;;;;24.13;2.35;;;;;;;5.85;100.00;100242.91;5012150;28;20049;-92
2023/01/13 03:41:35;;;;;;;17.58;1.50;;;;;;;6.02;100.00;100282.06;5007293;28;20169;-92
2023/01/13 03:44:23;;;;;;;13.10;1.60;;;;;;;5.96;100.00;100285.66;5020584;28;20396;-92
2023/01/13 03:47:05;;;;;;;9.70;1.17;;;;;;;5.85;100.00;100256.19;5030054;28;20284;-92
2023/01/13 03:49:38;;;;;;;7.53;0.98;;;;;;;5.73;100.00;100255.47;5025067;28;20491;-92
2023/01/13 03:52:12;;;;;;;10.25;0.90;;;;;;;5.61;100.00;100239.56;5054288;28;20081;-93
2023/01/13 03:54:45;;;;;;;8.48;1.05;;;;;;;5.64;100.00;100215.19;5056687;28;20048;-93
2023/01/13 03:57:14;;;;;;;8.27;0.80;;;;;;;5.65;100.00;100237.28;5049685;28;20045;-92
2023/01/13 03:59:55;;;;;;;12.52;1.02;;;;;;;5.85;100.00;100269.50;5022580;28;20054;-93
2023/01/13 04:02:32;;;;;;;6.13;0.60;;;;;;;5.58;100.00;100230.25;5012183;28;20623;-92
2023/01/13 04:05:00;;;;;;;7.22;0.88;;;;;;;5.77;100.00;100238.00;5013386;28;20179;-92
2023/01/13 04:08:03;;;;;;;10.43;0.90;;;;;;;5.93;100.00;100275.47;5013334;28;20026;-92
2023/01/13 04:11:08;;;;;;;8.73;0.57;;;;;;;5.89;100.00;100272.50;5013186;28;20088;-94
2023/01/13 04:13:38;;;;;;;10.85;1.30;;;;;;;5.69;100.00;100246.34;5010458;28;20468;-92
2023/01/13 04:16:06;;;;;;;6.87;1.40;;;;;;;5.64;100.00;100254.25;5020793;28;20029;-93
2023/01/13 04:18:36;;;;;;;8.80;1.00;;;;;;;5.52;100.00;100244.47;5007566;28;20344;-92
2023/01/13 04:21:03;;;;;;;10.82;1.45;;;;;;;5.71;100.00;100292.13;5012382;28;20071;-92
2023/01/13 04:23:28;;;;;;;7.00;0.82;;;;;;;5.46;100.00;100267.50;5015933;28;20055;-93
2023/01/13 04:25:58;;;;;;;10.00;1.40;;;;;;;5.28;100.00;100257.88;5011806;28;20026;-94
2023/01/13 04:28:43;;;;;;;13.15;1.10;;;;;;;5.29;100.00;100278.09;5011685;28;20034;-93
2023/01/13 04:31:08;;;;;;;14.38;1.20;;;;;;;5.51;100.00;100305.84;5023660;28;20029;-92
2023/01/13 04:33:33;;;;;;;14.57;1.90;;;;;;;5.54;100.00;100294.75;5011195;28;20132;-91
2023/01/13 04:35:59;;;;;;;15.00;2.00;;;;;;;5.31;100.00;100249.41;5002329;28;20547;-92
2023/01/13 04:38:24;;;;;;;14.65;1.15;;;;;;;5.49;100.00;100276.03;5013706;28;20022;-91
2023/01/13 04:40:49;;;;;;;19.93;2.07;;;;;;;5.50;100.00;100272.34;5010809;28;20059;-91
2023/01/13 04:43:15;;;;;;;15.50;1.60;;;;;;;5.44;100.00;100263.47;5011875;28;20037;-91
2023/01/13 04:45:42;;;;;;;11.30;1.30;;;;;;;5.66;100.00;100282.22;5010730;28;20038;-91
2023/01/13 04:48:07;;;;;;;14.80;1.87;;;;;;;5.77;100.00;100296.50;5014089;28;20022;-91
2023/01/13 04:50:32;;;;;;;14.15;1.20;;;;;;;5.65;100.00;100271.81;5021508;28;20056;-91
2023/01/13 04:53:00;;;;;;;17.97;1.80;;;;;;;5.85;100.00;100301.41;5010736;28;20034;-91
2023/01/13 04:55:25;;;;;;;11.75;1.73;;;;;;;5.66;100.00;100265.47;5034667;28;20060;-91
2023/01/13 04:57:51;;;;;;;14.30;1.70;;;;;;;5.64;100.00;100257.72;5021878;28;20094;-91
2023/01/13 05:00:20;;;;;;;16.30;1.77;;;;;;;5.63;100.00;100261.41;5023872;28;20079;-91
2023/01/13 05:02:45;;;;;;;22.80;2.58;;;;;;;5.42;100.00;100241.63;5033606;28;20148;-92
2023/01/13 05:05:13;;;;;;;18.13;1.60;;;;;;;5.58;100.00;100275.41;5012323;28;20722;-92
2023/01/13 05:07:45;;;;;;;19.15;1.80;;;;;;;5.34;100.00;100264.09;5009135;28;20373;-91
2023/01/13 05:10:11;;;;;;;18.63;2.22;;;;;;;5.46;100.00;100283.44;5003011;28;20164;-91
2023/01/13 05:18:04;;;;;;;14.15;1.30;;;;;;;5.25;100.00;100263.66;5017942;28;20040;-91
2023/01/13 05:20:29;;;;;;;15.63;2.05;;;;;;;5.38;100.00;100267.06;5008516;28;20038;-91
2023/01/13 05:25:40;;;;;;;20.88;1.98;;;;;;;5.08;100.00;100238.88;5004380;28;20069;-91
2023/01/13 05:28:06;;;;;;;21.43;2.27;;;;;;;5.20;100.00;100257.44;5014281;28;20025;-90
2023/01/13 05:30:37;;;;;;;18.37;2.17;;;;;;;5.35;100.00;100286.94;5015446;28;20292;-91
2023/01/13 05:33:03;;;;;;;21.02;2.03;;;;;;;5.15;100.00;100248.31;5009101;28;20113;-90
2023/01/13 05:35:28;;;;;;;25.25;2.50;;;;;;;5.12;100.00;100272.69;5010864;28;20075;-90
2023/01/13 05:37:54;;;;;;;13.60;1.60;;;;;;;5.03;100.00;100258.16;5012181;28;20025;-91
2023/01/13 05:43:19;;;;;;;17.92;2.03;;;;;;;5.19;100.00;100285.03;5011495;28;20069;-91
2023/01/13 05:45:51;;;;;;;18.92;1.58;;;;;;;5.19;100.00;100298.31;4995037;28;20092;-90
2023/01/13 05:48:18;;;;;;;11.93;1.42;;;;;;;5.12;100.00;100295.75;5008166;28;20022;-89
2023/01/13 06:01:10;;;;;;;13.90;2.05;;;;;;;4.87;100.00;100286.25;5007837;28;20049;-89
2023/01/13 06:03:36;;;;;;;20.27;1.57;;;;;;;4.95;100.00;100315.06;5013281;28;20030;-90
2023/01/13 06:06:02;;;;;;;24.65;2.20;;;;;;;4.98;100.00;100308.50;5013911;28;20032;-87
2023/01/13 06:08:29;;;;;;;16.65;1.80;;;;;;;4.95;100.00;100317.72;5013484;28;20026;-87
2023/01/13 06:10:54;;;;;;;19.00;1.30;;;;;;;4.83;100.00;100324.91;5012961;28;20106;-90
2023/01/13 06:13:20;;;;;;;19.10;1.77;;;;;;;4.84;100.00;100323.88;5005376;28;20030;-86
2023/01/13 06:15:45;;;;;;;14.63;1.60;;;;;;;4.67;100.00;100306.00;5007919;28;20133;-91
2023/01/13 06:18:10;;;;;;;12.60;2.33;;;;;;;4.85;100.00;100339.56;5011045;28;20662;-91
2023/01/13 06:20:36;;;;;;;12.90;1.73;;;;;;;4.77;100.00;100334.59;5012385;28;20026;-93
2023/01/13 06:23:02;;;;;;;16.52;2.00;;;;;;;4.81;100.00;100349.03;5023518;28;20040;-91
2023/01/13 06:25:52;;;;;;;18.40;1.85;;;;;;;4.80;100.00;100349.25;5016946;28;20185;-90
2023/01/13 06:28:17;;;;;;;20.55;1.73;;;;;;;4.76;100.00;100340.97;4999086;28;20105;-90
2023/01/13 06:30:48;;;;;;;11.93;1.47;;;;;;;4.75;100.00;100347.31;5029785;28;20026;-91
2023/01/13 06:33:18;;;;;;;16.70;1.95;;;;;;;4.75;100.00;100351.81;5025505;28;20038;-93
2023/01/13 06:35:51;;;;;;;25.85;2.15;;;;;;;4.63;100.00;100335.88;5020780;28;20049;-93
2023/01/13 06:40:44;;;;;;;13.03;1.53;;;;;;;4.72;100.00;100354.94;5005262;28;20328;-94
2023/01/13 06:43:16;;;;;;;18.42;2.28;;;;;;;4.68;100.00;100341.28;5009851;28;20034;-94
2023/01/13 06:45:49;;;;;;;16.20;1.98;;;;;;;4.82;100.00;100373.72;5000181;28;20706;-93
2023/01/13 06:48:16;;;;;;;20.48;1.83;;;;;;;4.89;100.00;100347.06;4999940;28;20022;-95
2023/01/13 06:50:41;;;;;;;12.07;1.50;;;;;;;4.80;100.00;100339.47;4998593;28;20105;-93
2023/01/13 06:53:07;;;;;;;22.20;1.88;;;;;;;4.89;100.00;100347.88;4996506;28;20053;-94
2023/01/13 06:55:33;;;;;;;22.85;1.65;;;;;;;4.59;100.00;100300.22;4996076;28;20027;-95
2023/01/13 06:57:58;;;;;;;27.20;2.17;;;;;;;4.73;100.00;100341.41;4996581;28;20030;-94
2023/01/13 07:00:24;;;;;;;28.30;2.20;;;;;;;4.76;100.00;100333.00;4993281;28;20050;-94
2023/01/13 07:02:50;;;;;;;20.05;1.95;;;;;;;4.78;100.00;100327.44;4997131;28;20026;-92
2023/01/13 07:05:27;;;;;;;20.40;1.70;;;;;;;4.80;100.00;100342.13;5004053;28;20037;-93
2023/01/13 07:07:53;;;;;;;24.95;1.92;;;;;;;4.88;100.00;100348.94;4992813;28;20044;-93
2023/01/13 07:10:21;;;;;;;16.90;1.73;;;;;;;4.95;100.00;100357.56;4993711;28;20121;-93
2023/01/13 07:15:33;;;;;;;17.45;2.50;;;;;;;4.90;100.00;100333.56;4999147;28;20044;-92
2023/01/13 07:18:00;;;;;;;25.50;2.30;;;;;;;5.09;100.00;100367.97;5014885;28;20029;-92
2023/01/13 07:20:26;;;;;;;28.17;2.10;;;;;;;4.93;100.00;100358.84;5009485;28;20297;-89
2023/01/13 07:22:54;;;;;;;24.90;1.73;;;;;;;4.85;100.00;100358.13;5000930;28;20090;-92
2023/01/13 07:25:20;;;;;;;17.90;2.47;;;;;;;4.74;100.00;100342.25;4978445;28;20026;-94
2023/01/13 07:27:46;;;;;;;22.23;1.75;;;;;;;4.90;100.00;100365.44;4995407;28;20100;-96
2023/01/13 07:30:12;;;;;;;14.90;1.83;;;;;;;4.92;100.00;100362.53;4974969;28;20057;-92
2023/01/13 07:32:37;;;;;;;15.57;1.98;;;;;;;4.63;100.00;100312.78;4971264;28;20042;-93
2023/01/13 07:35:06;;;;;;;16.40;1.40;;;;;;;4.87;100.00;100368.53;4979131;28;20030;-94
2023/01/13 07:37:35;;;;;;;19.90;1.67;;;;;;;4.79;100.00;100364.41;4975889;28;20058;-93
2023/01/13 07:40:03;;;;;;;18.48;1.60;;;;;;;4.79;100.00;100371.53;4994042;28;20033;-95
2023/01/13 07:45:12;;;;;;;14.90;1.90;;;;;;;4.75;100.00;100371.19;4994274;28;20042;-94
2023/01/13 07:47:38;;;;;;;17.93;1.47;;;;;;;4.78;100.00;100388.50;4998437;28;20023;-93
2023/01/13 07:50:04;;;;;;;20.65;2.17;;;;;;;4.78;100.00;100377.88;4996414;28;20232;-88
2023/01/13 07:52:30;;;;;;;21.03;1.77;;;;;;;4.87;100.00;100396.94;5013822;28;20037;-88
2023/01/13 07:54:55;;;;;;;27.52;1.92;;;;;;;4.79;100.00;100388.28;4994123;28;20042;-90
2023/01/13 07:57:20;;;;;;;17.30;1.90;;;;;;;4.67;100.00;100364.38;4993901;28;20030;-87
2023/01/13 07:59:46;;;;;;;21.57;2.30;;;;;;;4.84;100.00;100374.31;5006891;28;20030;-87
2023/01/13 08:02:11;;;;;;;20.27;2.30;;;;;;;4.98;100.00;100391.63;4993192;28;20854;-88
2023/01/13 08:04:38;;;;;;;22.83;2.25;;;;;;;5.03;100.00;100392.78;4991203;28;20379;-87
2023/01/13 08:07:04;;;;;;;19.00;2.15;;;;;;;5.12;100.00;100394.88;4990771;28;20090;-88
2023/01/13 08:09:29;;;;;;;13.83;1.57;;;;;;;5.03;100.00;100390.94;4990429;28;20132;-88
2023/01/13 08:14:38;;;;;;;18.57;2.73;;;;;;;5.21;100.00;100386.53;4991784;28;20065;-87
2023/01/13 08:17:04;;;;;;;18.27;1.90;;;;;;;5.14;100.00;100391.97;4991663;28;20471;-89
2023/01/13 08:19:29;;;;;;;22.53;2.90;;;;;;;5.21;100.00;100397.97;4989412;28;20113;-88
2023/01/13 08:21:55;;;;;;;22.33;2.03;;;;;;;5.19;100.00;100394.75;4992787;28;20081;-88
2023/01/13 08:24:21;;;;;;;21.13;1.95;;;;;;;5.22;100.00;100406.75;4992768;28;20030;-88
2023/01/13 08:26:46;;;;;;;19.17;1.67;;;;;;;5.20;100.00;100406.19;4991567;28;20026;-87
2023/01/13 08:29:11;;;;;;;17.33;1.97;;;;;;;5.20;100.00;100406.19;4989425;28;20026;-88
2023/01/13 08:31:37;;;;;;;26.33;2.43;;;;;;;5.13;100.00;100399.13;4988956;28;20026;-90
2023/01/13 08:34:02;;;;;;;16.70;2.20;;;;;;;5.05;100.00;100404.00;4988587;28;20031;-89
2023/01/13 08:36:27;;;;;;;16.03;1.70;;;;;;;5.07;100.00;100393.94;4990970;28;20321;-88
2023/01/13 08:38:53;;;;;;;23.63;1.70;;;;;;;5.25;100.00;100430.19;4991158;28;20019;-88
2023/01/13 08:41:53;;;;;;;20.87;2.23;;;;;;;5.24;100.00;100397.53;4993205;28;20102;-88
2023/01/13 08:44:05;;;;;;;14.88;1.85;;;;;;;5.25;100.00;100393.81;4991467;28;20070;-88
2023/01/13 08:46:30;;;;;;;19.05;1.98;;;;;;;5.35;100.00;100409.19;4991836;28;20018;-91
2023/01/13 08:48:56;;;;;;;24.77;2.73;;;;;;;5.41;100.00;100394.94;4995396;28;20025;-89
2023/01/13 08:51:21;;;;;;;17.60;2.40;;;;;;;5.63;100.00;100415.59;4994864;28;20058;-89
2023/01/13 08:53:47;;;;;;;27.43;2.90;;;;;;;5.64;100.00;100430.50;4992767;28;20031;-89
2023/01/13 08:56:13;;;;;;;21.65;2.05;;;;;;;5.69;100.00;100417.31;4991987;28;20030;-90
2023/01/13 08:58:39;;;;;;;16.23;2.40;;;;;;;5.81;100.00;100432.41;4990958;28;20030;-90
2023/01/13 09:01:07;;;;;;;15.50;2.03;;;;;;;5.81;100.00;100413.81;4991287;28;20026;-90
2023/01/13 09:03:32;;;;;;;21.20;2.53;;;;;;;5.84;100.00;100422.09;4992127;28;20053;-91
2023/01/13 09:05:58;;;;;;;19.40;2.00;;;;;;;5.82;100.00;100413.59;4993188;28;20019;-90
2023/01/13 09:21:00;;;;;;;21.50;2.33;;;;;;;6.17;100.00;100454.41;5071997;28;20037;-89
2023/01/13 09:23:29;;;;;;;24.30;3.10;;;;;;;6.28;100.00;100452.75;5075506;28;20074;-89
2023/01/13 09:25:54;;;;;;;32.78;2.92;;;;;;;6.42;100.00;100459.41;5057940;28;20112;-90
2023/01/13 09:28:19;;;;;;;22.53;2.57;;;;;;;6.65;100.00;100468.31;5069650;28;20041;-90
2023/01/13 09:30:45;;;;;;;24.13;2.43;;;;;;;6.86;100.00;100469.47;5072721;28;20044;-89
2023/01/13 09:35:58;;;;;;;19.63;2.30;;;;;;;7.23;100.00;100460.19;5037467;28;20287;-89
2023/01/13 09:38:27;;;;;;;22.35;2.17;;;;;;;7.29;100.00;100477.88;5047659;28;20108;-86
2023/01/13 09:40:54;;;;;;;18.40;2.72;;;;;;;7.25;100.00;100471.41;5040849;28;20523;-89
2023/01/13 09:49:22;;;;;;;28.17;2.63;;;;;;;7.07;100.00;100491.94;5052621;28;20060;-92
2023/01/13 09:52:08;;;;;;;26.43;2.83;;;;;;;7.05;100.00;100498.53;5036320;28;20301;-89
2023/01/13 09:54:59;;;;;;;28.77;2.65;;;;;;;7.01;100.00;100495.56;5059691;28;20056;-92
2023/01/13 09:57:27;;;;;;;22.85;3.15;;;;;;;6.95;100.00;100488.50;5055589;28;20033;-91
2023/01/13 09:59:53;;;;;;;25.05;2.50;;;;;;;6.87;100.00;100471.06;5039098;28;20033;-89
2023/01/13 10:02:27;;;;;;;20.37;2.30;;;;;;;7.03;100.00;100503.31;5056188;28;20040;-95
2023/01/13 10:05:36;;;;;;;15.13;1.80;;;;;;;7.09;100.00;100499.66;5056859;28;20033;-92
2023/01/13 10:08:10;;;;;;;20.75;2.45;;;;;;;7.08;100.00;100498.88;5012762;28;20131;-92
2023/01/13 10:10:48;;;;;;;27.67;2.78;;;;;;;7.13;100.00;100511.47;5035117;28;20058;-92
2023/01/13 10:13:20;;;;;;;21.20;3.10;;;;;;;7.16;100.00;100510.16;5019679;28;20044;-88
2023/01/13 10:16:02;;;;;;;22.47;2.47;;;;;;;7.26;100.00;100511.13;5035347;28;20041;-90
2023/01/13 10:18:45;;;;;;;24.33;2.97;;;;;;;7.51;100.00;100517.09;5051074;28;20025;-90
2023/01/13 10:21:38;;;;;;;23.30;2.65;;;;;;;7.68;100.00;100511.72;5036036;28;20029;-91
2023/01/13 10:24:28;;;;;;;28.27;2.90;;;;;;;7.63;100.00;100515.13;5055600;28;20048;-88
2023/01/13 10:27:09;;;;;;;29.02;3.30;;;;;;;7.50;100.00;100523.47;5053180;28;20035;-91
2023/01/13 10:29:35;;;;;;;27.17;3.23;;;;;;;7.28;100.00;100514.38;5053062;28;20048;-93
2023/01/13 10:32:00;;;;;;;26.93;2.67;;;;;;;7.01;100.00;100502.75;5054189;28;20631;-91
2023/01/13 10:34:43;;;;;;;24.23;3.00;;;;;;;6.92;100.00;100505.00;5053864;28;20017;-92
2023/01/13 10:37:20;;;;;;;27.03;2.50;;;;;;;6.74;100.00;100508.69;5052928;28;20103;-88
2023/01/13 10:39:47;;;;;;;23.53;2.90;;;;;;;6.60;100.00;100519.63;5048931;28;20811;-93
2023/01/13 10:42:15;;;;;;;28.35;3.30;;;;;;;6.58;100.00;100542.19;5048483;28;20086;-88
2023/01/13 10:44:58;;;;;;;25.90;3.00;;;;;;;6.33;100.00;100532.69;5051635;28;20033;-89
2023/01/13 10:47:35;;;;;;;23.15;2.60;;;;;;;6.19;100.00;100550.78;5049830;28;20045;-88
2023/01/13 10:50:33;;;;;;;29.80;2.80;;;;;;;6.19;100.00;100561.44;5066398;28;20192;-88
2023/01/13 10:53:16;;;;;;;27.53;2.93;;;;;;;6.13;100.00;100555.19;5056348;28;20095;-89
2023/01/13 10:55:42;;;;;;;25.63;2.93;;;;;;;6.16;100.00;100556.56;5051936;28;20439;-89
2023/01/13 10:58:19;;;;;;;24.38;3.40;;;;;;;6.16;100.00;100545.91;5072158;28;20080;-86
2023/01/13 11:00:45;;;;;;;27.67;3.17;;;;;;;6.18;100.00;100550.00;5053498;28;20128;-87
2023/01/13 11:03:23;;;;;;;24.13;3.83;;;;;;;6.19;100.00;100543.63;5048562;28;20036;-87
2023/01/13 11:05:58;;;;;;;26.50;3.00;;;;;;;6.33;100.00;100551.31;5034283;28;20029;-87
2023/01/13 11:08:29;;;;;;;21.40;2.97;;;;;;;6.34;100.00;100539.63;5048234;28;20076;-91
2023/01/13 11:10:57;;;;;;;19.00;3.07;;;;;;;6.34;100.00;100529.78;5033067;28;20402;-87
2023/01/13 11:14:31;;;;;;;23.27;3.08;;;;;;;6.39;100.00;100550.38;5024380;28;20060;-87
2023/01/13 11:16:24;;;;;;;27.10;3.15;;;;;;;6.29;100.00;100544.84;5039873;28;20069;-86
2023/01/13 11:19:10;;;;;;;27.63;3.38;;;;;;;6.28;100.00;100556.53;5051533;28;20013;-86
2023/01/13 11:21:42;;;;;;;19.20;2.78;;;;;;;6.36;100.00;100577.47;5033777;28;20037;-87
2023/01/13 11:24:20;;;;;;;24.83;3.03;;;;;;;6.32;100.00;100550.50;5051161;28;20033;-87
2023/01/13 11:27:02;;;;;;;23.77;2.87;;;;;;;6.34;100.00;100547.63;5051931;28;20774;-87
2023/01/13 11:29:41;;;;;;;28.02;2.85;;;;;;;6.28;100.00;100543.25;5045212;28;20668;-87
2023/01/13 11:32:22;;;;;;;20.73;2.25;;;;;;;6.33;100.00;100565.44;5040591;28;20543;-86
2023/01/13 11:34:54;;;;;;;23.33;2.75;;;;;;;6.40;100.00;100581.25;5045448;28;20031;-85
2023/01/13 11:37:39;;;;;;;30.67;2.92;;;;;;;6.38;100.00;100559.44;5031587;28;20033;-84
2023/01/13 11:40:29;;;;;;;27.50;3.03;;;;;;;6.57;100.00;100567.22;5046304;28;20021;-84
2023/01/13 11:43:09;;;;;;;20.07;3.87;;;;;;;6.79;100.00;100578.81;5050898;28;20295;-84
2023/01/13 11:45:52;;;;;;;22.83;3.03;;;;;;;6.86;100.00;100577.88;5043794;28;20382;-85
2023/01/13 11:48:21;;;;;;;20.38;2.20;;;;;;;6.87;100.00;100587.47;5050202;28;20417;-84
2023/01/13 11:51:21;;;;;;;21.10;2.95;;;;;;;6.96;100.00;100596.69;5028998;28;20017;-87
2023/01/13 11:54:16;;;;;;;22.58;2.47;;;;;;;6.95;100.00;100579.09;5036897;28;20029;-86
2023/01/13 11:56:41;;;;;;;23.30;2.80;;;;;;;7.04;100.00;100591.00;5047991;28;20104;-85
2023/01/13 11:59:25;;;;;;;17.33;2.50;;;;;;;7.11;100.00;100583.66;5048224;28;20109;-84
2023/01/13 12:02:05;;;;;;;19.27;2.87;;;;;;;7.07;100.00;100582.53;5049687;28;20039;-86
2023/01/13 12:04:45;;;;;;;18.93;2.40;;;;;;;7.18;100.00;100596.00;5051066;28;20294;-85
2023/01/13 12:07:19;;;;;;;18.95;2.00;;;;;;;7.13;100.00;100594.06;5048642;28;20029;-85
2023/01/13 12:10:15;;;;;;;19.10;2.50;;;;;;;7.09;100.00;100591.09;5050500;28;20021;-85
2023/01/13 12:12:55;;;;;;;26.25;3.78;;;;;;;7.11;100.00;100597.00;5048660;28;20025;-84
2023/01/13 12:15:41;;;;;;;24.75;2.50;;;;;;;7.21;100.00;100603.53;5052215;28;20027;-84
2023/01/13 12:18:15;;;;;;;21.37;2.20;;;;;;;7.35;100.00;100631.47;5058783;28;20029;-84
2023/01/13 12:20:58;;;;;;;26.10;2.77;;;;;;;7.38;100.00;100620.34;5063015;28;20660;-84
2023/01/13 12:23:46;;;;;;;19.92;2.22;;;;;;;7.37;100.00;100624.06;5033673;28;20042;-84
2023/01/13 12:26:17;;;;;;;19.80;2.20;;;;;;;7.34;100.00;100618.41;5052663;28;20055;-84
2023/01/13 12:28:48;;;;;;;17.33;1.75;;;;;;;7.32;100.00;100621.28;5064857;28;20023;-84
2023/01/13 12:31:17;;;;;;;18.50;2.03;;;;;;;7.31;100.00;100624.22;5046966;28;20043;-84
2023/01/13 12:34:03;;;;;;;18.60;1.80;;;;;;;7.39;100.00;100613.16;5047803;28;20384;-84
2023/01/13 12:36:50;;;;;;;19.00;2.70;;;;;;;7.46;100.00;100623.66;5045219;28;20647;-85
2023/01/13 12:40:00;;;;;;;17.98;2.30;;;;;;;7.46;100.00;100634.34;5042369;28;20112;-84
2023/01/13 12:45:32;;;;;;;13.57;1.67;;;;;;;7.41;100.00;100630.53;5049586;28;20044;-83
2023/01/13 12:47:58;;;;;;;17.52;1.98;;;;;;;7.51;100.00;100642.41;5049885;28;20098;-86
2023/01/13 12:50:23;;;;;;;21.37;2.03;;;;;;;7.53;100.00;100642.97;5049301;28;20044;-85
2023/01/13 12:53:19;;;;;;;14.70;1.60;;;;;;;7.46;100.00;100642.34;5049944;28;20295;-84
2023/01/13 12:55:50;;;;;;;17.13;2.07;;;;;;;7.49;100.00;100653.31;5047655;28;20035;-84
2023/01/13 12:58:16;;;;;;;19.83;2.50;;;;;;;7.49;100.00;100655.16;5049059;28;20352;-84
2023/01/13 13:00:43;;;;;;;18.25;2.05;;;;;;;7.54;100.00;100664.06;5050292;28;20029;-86
2023/01/13 13:03:12;;;;;;;15.90;2.15;;;;;;;7.57;100.00;100670.78;5050461;28;20041;-86
2023/01/13 13:05:42;;;;;;;16.75;1.80;;;;;;;7.60;100.00;100675.63;5053611;28;20067;-85
2023/01/13 13:08:41;;;;;;;21.77;2.25;;;;;;;7.63;100.00;100679.66;5060432;28;20020;-85
2023/01/13 13:13:58;;;;;;;10.03;1.40;;;;;;;7.51;100.00;100669.88;5056506;28;20101;-86
2023/01/13 13:16:44;;;;;;;15.77;1.75;;;;;;;7.48;100.00;100683.69;5057058;28;20119;-86
2023/01/13 13:19:21;;;;;;;6.20;1.38;;;;;;;7.34;100.00;100696.50;5038471;28;20163;-85
2023/01/13 13:22:11;;;;;;;20.25;1.90;;;;;;;7.20;100.00;100673.84;5038759;28;20037;-85
2023/01/13 13:24:38;;;;;;;23.35;2.03;;;;;;;7.25;100.00;100689.94;5055780;28;20021;-85
2023/01/13 13:27:18;;;;;;;14.23;2.10;;;;;;;7.35;100.00;100714.13;5056223;28;20064;-85
2023/01/13 13:29:59;;;;;;;15.57;2.30;;;;;;;7.40;100.00;100694.72;5045068;28;20341;-85
2023/01/13 13:32:56;;;;;;;16.23;2.05;;;;;;;7.56;100.00;100709.97;5056194;28;20036;-85
2023/01/13 13:35:40;;;;;;;13.10;1.75;;;;;;;7.67;100.00;100710.94;4997825;28;20035;-86
2023/01/13 13:47:08;;;;;;;13.97;1.77;;;;;;;7.80;100.00;100730.38;5052265;28;20286;-88
2023/01/13 13:49:51;;;;;;;14.60;1.98;;;;;;;7.80;100.00;100730.38;5072865;28;20025;-87
2023/01/13 13:52:38;;;;;;;15.40;2.22;;;;;;;7.76;100.00;100731.88;5058939;28;20170;-90
2023/01/13 13:55:12;;;;;;;15.30;3.20;;;;;;;7.73;100.00;100731.31;5074315;28;20021;-89
2023/01/13 13:57:41;;;;;;;14.93;1.77;;;;;;;7.73;100.00;100746.53;5066169;28;20272;-89
2023/01/13 14:00:20;;;;;;;12.98;1.58;;;;;;;7.66;100.00;100749.34;5057205;28;20112;-89
2023/01/13 14:02:49;;;;;;;18.88;1.98;;;;;;;7.68;100.00;100760.56;5058264;28;20029;-90
2023/01/13 14:05:26;;;;;;;13.30;1.52;;;;;;;7.76;100.00;100779.91;5061327;28;20048;-89
2023/01/13 14:08:14;;;;;;;12.15;1.40;;;;;;;7.76;100.00;100790.56;5064761;28;20041;-89
2023/01/13 14:10:42;;;;;;;11.23;1.93;;;;;;;7.72;100.00;100776.91;5066460;28;20096;-88
2023/01/13 14:13:34;;;;;;;15.93;2.27;;;;;;;7.77;100.00;100792.19;5066591;28;20357;-89
2023/01/13 14:16:05;;;;;;;16.67;1.75;;;;;;;7.79;100.00;100800.78;5056429;28;20406;-89
2023/01/13 14:18:53;;;;;;;15.13;2.08;;;;;;;7.76;100.00;100795.91;5048442;28;20009;-89
2023/01/13 14:21:30;;;;;;;20.23;2.10;;;;;;;7.65;100.00;100813.56;5056379;28;20033;-89
2023/01/13 14:24:10;;;;;;;16.83;2.25;;;;;;;7.62;100.00;100822.88;5058897;28;20025;-89
2023/01/13 14:26:37;;;;;;;21.13;2.00;;;;;;;7.56;100.00;100808.63;5056602;28;20112;-90
2023/01/13 14:29:03;;;;;;;11.40;2.23;;;;;;;7.40;100.00;100796.88;5056136;28;20314;-88
2023/01/13 14:31:29;;;;;;;15.60;2.20;;;;;;;7.33;100.00;100782.84;5055374;28;20075;-89
2023/01/13 14:33:57;;;;;;;15.20;1.77;;;;;;;7.49;100.00;100817.81;5037787;28;20025;-90
2023/01/13 14:36:38;;;;;;;11.98;1.55;;;;;;;7.57;100.00;100836.09;5054326;28;20071;-90
2023/01/13 14:39:22;;;;;;;20.55;2.10;;;;;;;7.61;100.00;100842.59;5055685;28;20048;-89
2023/01/13 14:41:49;;;;;;;9.13;1.30;;;;;;;7.51;100.00;100837.03;5037700;28;20052;-89